createdAt,value
2022-10-11T00:04:30.766Z,967.74
2022-10-11T00:09:32.566Z,967.75
2022-10-11T00:14:34.070Z,967.84
2022-10-11T00:19:35.836Z,967.85
2022-10-11T00:24:37.576Z,967.91
2022-10-11T00:29:39.431Z,967.85
2022-10-11T00:34:40.813Z,967.89
2022-10-11T00:40:30.290Z,967.94
2022-10-11T00:44:43.419Z,967.94
2022-10-11T00:49:45.216Z,967.96
2022-10-11T00:54:46.591Z,967.99
2022-10-11T00:59:48.062Z,968.05
2022-10-11T01:04:57.407Z,968.06
2022-10-11T01:09:51.021Z,968.04
2022-10-11T01:14:52.630Z,968.05
2022-10-11T01:19:54.459Z,968.08
2022-10-11T01:24:55.978Z,968.02
2022-10-11T01:29:57.840Z,967.95
2022-10-11T01:34:59.838Z,967.94
2022-10-11T01:40:01.849Z,967.96
2022-10-11T01:45:03.703Z,967.96
2022-10-11T01:50:05.570Z,968.02
2022-10-11T01:55:09.854Z,967.94
2022-10-11T02:00:09.058Z,967.96
2022-10-11T02:05:10.940Z,967.97
2022-10-11T02:10:12.787Z,968.02
2022-10-11T02:15:14.238Z,967.94
2022-10-11T02:20:15.480Z,967.95
2022-10-11T02:25:17.543Z,967.9
2022-10-11T02:30:19.297Z,967.9
2022-10-11T02:35:21.189Z,967.93
2022-10-11T02:40:23.169Z,967.94
2022-10-11T02:45:25.171Z,967.87
2022-10-11T02:50:26.935Z,967.83
2022-10-11T02:55:29.009Z,967.85
2022-10-11T03:00:31.174Z,967.82
2022-10-11T03:05:33.190Z,967.85
2022-10-11T03:10:34.651Z,967.87
2022-10-11T03:15:36.132Z,967.93
2022-10-11T03:20:37.412Z,968
2022-10-11T03:25:38.745Z,968.12
2022-10-11T03:30:40.202Z,968.24
2022-10-11T03:35:41.590Z,968.4
2022-10-11T03:40:42.937Z,968.41
2022-10-11T03:45:44.566Z,968.46
2022-10-11T03:50:46.391Z,968.46
2022-10-11T03:56:01.519Z,968.5
2022-10-11T04:00:50.227Z,968.48
2022-10-11T04:05:52.413Z,968.49
2022-10-11T04:10:54.210Z,968.5
2022-10-11T04:16:43.781Z,968.48
2022-10-11T04:20:57.540Z,968.47
2022-10-11T04:25:58.782Z,968.57
2022-10-11T04:31:00.908Z,968.53
2022-10-11T04:36:02.589Z,968.55
2022-10-11T04:41:04.062Z,968.52
2022-10-11T04:46:06.197Z,968.53
2022-10-11T04:51:07.925Z,968.51
2022-10-11T04:56:09.867Z,968.51
2022-10-11T05:01:11.372Z,968.51
2022-10-11T05:06:13.428Z,968.53
2022-10-11T05:11:15.902Z,968.56
2022-10-11T05:16:16.572Z,968.56
2022-10-11T05:21:17.571Z,968.56
2022-10-11T05:27:07.265Z,968.53
2022-10-11T05:31:20.423Z,968.54
2022-10-11T05:36:21.911Z,968.56
2022-10-11T05:41:23.186Z,968.58
2022-10-11T05:46:24.720Z,968.67
2022-10-11T05:51:25.958Z,968.76
2022-10-11T05:56:39.347Z,968.84
2022-10-11T06:01:29.765Z,968.89
2022-10-11T06:06:30.930Z,968.93
2022-10-11T06:11:32.267Z,968.94
2022-10-11T06:16:43.813Z,968.92
2022-10-11T06:21:35.022Z,969.02
2022-10-11T06:26:36.895Z,969.02
2022-10-11T06:31:38.191Z,969.01
2022-10-11T06:36:40.124Z,969.07
2022-10-11T06:41:41.313Z,969.04
2022-10-11T06:46:43.412Z,969.1
2022-10-11T06:51:44.586Z,969.12
2022-10-11T07:01:47.834Z,969.24
2022-10-11T07:06:49.692Z,969.29
2022-10-11T07:11:51.602Z,969.28
2022-10-11T07:21:54.727Z,969.4
2022-10-11T07:52:13.960Z,969.5
2022-10-11T07:57:15.986Z,969.53
2022-10-11T08:02:17.648Z,969.53
2022-10-11T08:07:18.877Z,969.6
2022-10-11T08:22:24.097Z,969.61
2022-10-11T08:27:25.739Z,969.66
2022-10-11T08:32:27.741Z,969.66
2022-10-11T08:37:29.070Z,969.69
2022-10-11T08:42:30.994Z,969.73
2022-10-11T08:47:32.843Z,969.76
2022-10-11T08:52:34.755Z,969.73
2022-10-11T08:57:36.184Z,969.83
2022-10-11T09:02:56.027Z,969.84
2022-10-11T09:07:39.571Z,969.83
2022-10-11T09:12:41.205Z,969.85
2022-10-11T09:17:43.016Z,969.86
2022-10-11T09:22:44.366Z,969.81
2022-10-11T09:28:03.100Z,969.79
2022-10-11T09:32:48.051Z,969.81
2022-10-11T09:37:49.376Z,969.76
2022-10-11T09:42:51.089Z,969.78
2022-10-11T09:47:52.982Z,969.75
2022-10-11T09:52:54.636Z,969.72
2022-10-11T09:57:56.679Z,969.74
2022-10-11T10:02:58.470Z,969.73
2022-10-11T10:08:01.648Z,969.74
2022-10-11T10:13:00.159Z,969.78
2022-10-11T10:18:01.908Z,969.79
2022-10-11T10:23:03.896Z,969.78
2022-10-11T10:28:06.036Z,969.75
2022-10-11T10:33:07.348Z,969.82
2022-10-11T10:38:08.487Z,969.8
2022-10-11T10:43:09.761Z,969.78
2022-10-11T10:48:11.207Z,969.77
2022-10-11T10:53:13.293Z,969.74
2022-10-11T10:58:18.571Z,969.67
2022-10-11T11:03:15.812Z,969.66
2022-10-11T11:08:18.142Z,969.57
2022-10-11T11:13:20.121Z,969.53
2022-10-11T11:18:21.963Z,969.51
2022-10-11T11:23:24.134Z,969.55
2022-10-11T11:28:26.413Z,969.47
2022-10-11T11:33:27.662Z,969.49
2022-10-11T11:38:29.801Z,969.45
2022-10-11T11:43:31.149Z,969.45
2022-10-11T11:48:32.650Z,969.48
2022-10-11T11:53:34.787Z,969.43
2022-10-11T11:58:36.324Z,969.47
2022-10-11T12:03:41.533Z,969.51
2022-10-11T12:08:39.633Z,969.5
2022-10-11T12:13:41.389Z,969.45
2022-10-11T12:18:43.053Z,969.4
2022-10-11T12:23:44.822Z,969.34
2022-10-11T12:28:46.819Z,969.31
2022-10-11T12:33:48.935Z,969.3
2022-10-11T12:38:50.755Z,969.24
2022-10-11T12:44:02.512Z,969.25
2022-10-11T12:48:53.569Z,969.19
2022-10-11T12:54:14.630Z,969.22
2022-10-11T12:58:58.688Z,969.22
2022-10-11T13:04:00.656Z,969.21
2022-10-11T13:09:02.541Z,969.19
2022-10-11T13:14:04.607Z,969.17
2022-10-11T13:19:05.889Z,969.24
2022-10-11T13:24:07.441Z,969.19
2022-10-11T13:29:09.123Z,969.27
2022-10-11T13:34:11.026Z,969.23
2022-10-11T13:39:12.447Z,969.24
2022-10-11T13:44:14.580Z,969.21
2022-10-11T13:49:15.977Z,969.16
2022-10-11T13:54:18.043Z,969.17
2022-10-11T13:59:19.221Z,969.13
2022-10-11T14:04:20.800Z,969.15
2022-10-11T14:09:22.424Z,969.08
2022-10-11T14:14:23.847Z,969.11
2022-10-11T14:19:25.956Z,969.09
2022-10-11T14:24:27.695Z,969.05
2022-10-11T14:29:29.693Z,969.06
2022-10-11T14:34:31.731Z,969.11
2022-10-11T14:39:33.058Z,969.12
2022-10-11T14:44:34.889Z,969.09
2022-10-11T14:49:36.592Z,969.08
2022-10-11T14:54:38.661Z,969.11
2022-10-11T14:59:40.701Z,969.08
2022-10-11T15:04:42.263Z,969.06
2022-10-11T15:09:44.027Z,969.03
2022-10-11T15:14:45.826Z,969.08
2022-10-11T15:19:47.727Z,969.04
2022-10-11T15:24:51.736Z,969.01
2022-10-11T15:29:51.666Z,969.04
2022-10-11T15:34:53.824Z,969.11
2022-10-11T15:39:55.782Z,969.14
2022-10-11T15:44:57.733Z,969.09
2022-10-11T15:49:59.237Z,969.11
2022-10-11T15:55:00.652Z,969.1
2022-10-11T16:00:01.966Z,969.1
2022-10-11T16:05:03.726Z,969.11
2022-10-11T16:10:53.360Z,969.11
2022-10-11T16:15:07.392Z,969.13
2022-10-11T16:20:09.436Z,969.14
2022-10-11T16:25:11.473Z,969.17
2022-10-11T16:30:13.148Z,969.18
2022-10-11T16:35:14.400Z,969.2
2022-10-11T16:40:16.007Z,969.22
2022-10-11T16:45:17.690Z,969.24
2022-10-11T16:50:19.607Z,969.3
2022-10-11T16:55:21.051Z,969.33
2022-10-11T17:00:23.378Z,969.34
2022-10-11T17:05:24.873Z,969.41
2022-10-11T17:10:26.247Z,969.39
2022-10-11T17:15:28.260Z,969.38
2022-10-11T17:20:29.844Z,969.38
2022-10-11T17:25:31.457Z,969.42
2022-10-11T17:30:32.783Z,969.4
2022-10-11T17:35:33.977Z,969.47
2022-10-11T17:40:35.694Z,969.47
2022-10-11T17:45:37.479Z,969.45
2022-10-11T17:50:39.386Z,969.43
2022-10-11T17:55:41.413Z,969.39
2022-10-11T18:00:43.231Z,969.41
2022-10-11T18:05:44.819Z,969.41
2022-10-11T18:10:47.662Z,969.39
2022-10-11T18:15:51.419Z,969.39
2022-10-11T18:20:49.461Z,969.35
2022-10-11T18:25:51.217Z,969.33
2022-10-11T18:30:53.406Z,969.32
2022-10-11T18:35:55.270Z,969.31
2022-10-11T18:40:56.898Z,969.26
2022-10-11T18:45:58.566Z,969.24
2022-10-11T18:51:00.336Z,969.29
2022-10-11T18:56:02.319Z,969.27
2022-10-11T19:01:04.057Z,969.28
2022-10-11T19:06:06.269Z,969.25
2022-10-11T19:11:08.113Z,969.27
2022-10-11T19:16:09.922Z,969.25
2022-10-11T19:21:11.138Z,969.29
2022-10-11T19:26:12.668Z,969.25
2022-10-11T19:31:14.182Z,969.21
2022-10-11T19:36:15.301Z,969.22
2022-10-11T19:41:17.080Z,969.19
2022-10-11T19:46:32.336Z,969.2
2022-10-11T19:51:20.944Z,969.17
2022-10-11T19:56:22.738Z,969.22
2022-10-11T20:01:24.465Z,969.21
2022-10-11T20:06:26.015Z,969.27
2022-10-11T20:11:27.888Z,969.31
2022-10-11T20:16:29.655Z,969.35
2022-10-11T20:21:30.953Z,969.36
2022-10-11T20:26:32.233Z,969.37
2022-10-11T20:31:34.117Z,969.36
2022-10-11T20:36:35.862Z,969.36
2022-10-11T20:41:37.376Z,969.34
2022-10-11T20:46:39.504Z,969.34
2022-10-11T20:51:40.800Z,969.35
2022-10-11T20:57:30.495Z,969.35
2022-10-11T21:01:43.526Z,969.33
2022-10-11T21:06:45.255Z,969.3
2022-10-11T21:11:47.177Z,969.3
2022-10-11T21:16:49.041Z,969.28
2022-10-11T21:21:53.625Z,969.26
2022-10-11T22:12:05.217Z,969.19
2022-10-11T22:22:09.140Z,969.17
2022-10-11T22:37:14.343Z,969.02
2022-10-11T22:42:16.448Z,968.99
2022-10-11T22:47:17.755Z,969.04
2022-10-11T22:57:21.008Z,969.02
2022-10-11T23:02:22.699Z,969.06
2022-10-11T23:07:24.824Z,969.08
2022-10-11T23:12:26.524Z,969.03
2022-10-11T23:18:16.145Z,969.06
2022-10-11T23:22:30.199Z,969.08
2022-10-11T23:27:31.927Z,969.04
2022-10-11T23:32:33.683Z,969.12
2022-10-11T23:37:35.322Z,969.11
2022-10-11T23:42:37.257Z,969.13
2022-10-11T23:47:39.659Z,969.17
2022-10-11T23:53:28.810Z,969.14
2022-10-11T23:57:42.877Z,969.11
